createdAt,value
2022-11-22T00:00:41.776Z,4.50
2022-11-22T00:01:41.868Z,5.80
2022-11-22T00:02:41.768Z,7.20
2022-11-22T00:03:41.772Z,5.60
2022-11-22T00:04:41.762Z,4.80
2022-11-22T00:05:41.755Z,5.50
2022-11-22T00:06:41.746Z,5.00
2022-11-22T00:07:41.795Z,5.70
2022-11-22T00:08:41.761Z,4.90
2022-11-22T00:09:41.738Z,5.20
2022-11-22T00:10:41.729Z,5.40
2022-11-22T00:11:41.731Z,6.60
2022-11-22T00:12:41.719Z,6.10
2022-11-22T00:13:41.717Z,5.70
2022-11-22T00:14:41.711Z,5.40
2022-11-22T00:15:41.714Z,5.80
2022-11-22T00:16:41.697Z,5.60
2022-11-22T00:17:41.692Z,5.70
2022-11-22T00:18:41.688Z,5.30
2022-11-22T00:19:41.687Z,7.80
2022-11-22T00:20:41.688Z,5.50
2022-11-22T00:21:41.687Z,4.30
2022-11-22T00:22:44.723Z,5.30
2022-11-22T00:23:41.683Z,5.10
2022-11-22T00:24:41.735Z,6.10
2022-11-22T00:25:41.654Z,5.60
2022-11-22T00:26:41.652Z,5.80
2022-11-22T00:27:41.654Z,6.00
2022-11-22T00:28:41.645Z,5.60
2022-11-22T00:29:41.632Z,5.60
2022-11-22T00:30:41.628Z,6.30
2022-11-22T00:31:41.631Z,5.60
2022-11-22T00:32:41.619Z,4.80
2022-11-22T00:33:41.614Z,6.40
2022-11-22T00:34:41.608Z,6.80
2022-11-22T00:35:41.613Z,5.60
2022-11-22T00:36:41.604Z,6.50
2022-11-22T00:37:41.602Z,7.30
2022-11-22T00:38:41.593Z,5.30
2022-11-22T00:39:41.587Z,5.60
2022-11-22T00:40:41.599Z,5.90
2022-11-22T00:41:41.576Z,6.20
2022-11-22T00:42:41.571Z,5.20
2022-11-22T00:43:41.566Z,6.40
2022-11-22T00:44:41.561Z,5.90
2022-11-22T00:45:41.553Z,5.70
2022-11-22T00:46:41.553Z,6.60
2022-11-22T00:47:41.553Z,6.30
2022-11-22T00:48:41.551Z,7.00
2022-11-22T00:49:41.535Z,5.40
2022-11-22T00:50:41.530Z,5.80
2022-11-22T00:51:41.531Z,6.60
2022-11-22T00:52:41.523Z,6.20
2022-11-22T00:53:41.521Z,4.70
2022-11-22T00:54:41.514Z,5.40
2022-11-22T00:55:41.506Z,7.20
2022-11-22T00:56:41.524Z,5.70
2022-11-22T00:57:41.496Z,6.10
2022-11-22T00:58:41.491Z,6.60
2022-11-22T00:59:41.488Z,5.40
2022-11-22T01:00:41.604Z,5.80
2022-11-22T01:01:41.623Z,5.80
2022-11-22T01:02:41.475Z,5.40
2022-11-22T01:03:41.469Z,4.70
2022-11-22T01:04:41.480Z,6.80
2022-11-22T01:05:41.457Z,5.90
2022-11-22T01:06:41.457Z,5.50
2022-11-22T01:07:41.550Z,5.50
2022-11-22T01:08:41.443Z,5.80
2022-11-22T01:09:41.440Z,6.50
2022-11-22T01:10:41.431Z,6.50
2022-11-22T01:11:41.428Z,5.70
2022-11-22T01:12:41.439Z,5.70
2022-11-22T01:13:41.418Z,5.70
2022-11-22T01:14:41.415Z,5.70
2022-11-22T01:15:41.411Z,6.20
2022-11-22T01:16:41.403Z,8.70
2022-11-22T01:17:41.400Z,5.70
2022-11-22T01:18:41.395Z,5.80
2022-11-22T01:19:41.385Z,6.60
2022-11-22T01:20:41.384Z,5.20
2022-11-22T01:21:41.375Z,6.40
2022-11-22T01:22:41.377Z,5.80
2022-11-22T01:23:41.379Z,6.00
2022-11-22T01:24:41.367Z,5.10
2022-11-22T01:25:41.358Z,5.80
2022-11-22T01:26:41.354Z,4.50
2022-11-22T01:27:41.351Z,6.20
2022-11-22T01:28:41.369Z,6.90
2022-11-22T01:29:41.340Z,5.90
2022-11-22T01:30:41.339Z,6.10
2022-11-22T01:31:41.329Z,6.60
2022-11-22T01:32:41.327Z,4.90
2022-11-22T01:33:41.319Z,4.90
2022-11-22T01:34:41.316Z,6.10
2022-11-22T01:35:41.310Z,5.40
2022-11-22T01:36:41.308Z,5.70
2022-11-22T01:37:41.298Z,6.00
2022-11-22T01:38:41.295Z,5.70
2022-11-22T01:39:41.292Z,5.60
2022-11-22T01:40:41.286Z,6.40
2022-11-22T01:41:41.282Z,5.80
2022-11-22T01:42:41.279Z,6.10
2022-11-22T01:43:41.278Z,5.20
2022-11-22T01:44:41.305Z,6.60
2022-11-22T01:45:41.259Z,4.00
2022-11-22T01:46:41.257Z,6.10
2022-11-22T01:47:41.253Z,5.80
2022-11-22T01:48:41.246Z,5.20
2022-11-22T01:49:41.241Z,5.90
2022-11-22T01:50:41.235Z,6.80
2022-11-22T01:51:41.231Z,4.80
2022-11-22T01:52:41.229Z,5.70
2022-11-22T01:53:41.222Z,5.20
2022-11-22T01:54:41.218Z,5.10
2022-11-22T01:55:41.215Z,6.50
2022-11-22T01:56:41.212Z,5.50
2022-11-22T01:57:41.200Z,5.40
2022-11-22T01:58:41.200Z,4.50
2022-11-22T01:59:41.198Z,6.00
2022-11-22T02:00:41.294Z,6.70
2022-11-22T02:01:41.286Z,5.20
2022-11-22T02:02:41.181Z,5.70
2022-11-22T02:03:41.178Z,6.90
2022-11-22T02:04:41.171Z,5.50
2022-11-22T02:05:41.165Z,5.80
2022-11-22T02:06:41.161Z,5.60
2022-11-22T02:07:41.290Z,7.20
2022-11-22T02:08:41.156Z,6.90
2022-11-22T02:09:41.148Z,7.40
2022-11-22T02:10:41.164Z,6.90
2022-11-22T02:11:41.140Z,6.80
2022-11-22T02:12:41.135Z,4.50
2022-11-22T02:13:41.126Z,7.30
2022-11-22T02:14:41.130Z,6.30
2022-11-22T02:15:41.120Z,4.70
2022-11-22T02:16:41.140Z,4.40
2022-11-22T02:17:41.110Z,6.70
2022-11-22T02:18:41.105Z,6.50
2022-11-22T02:19:41.101Z,4.10
2022-11-22T02:20:41.111Z,6.70
2022-11-22T02:21:41.093Z,7.10
2022-11-22T02:22:41.093Z,7.60
2022-11-22T02:23:41.084Z,4.50
2022-11-22T02:24:41.078Z,6.10
2022-11-22T02:25:41.074Z,6.40
2022-11-22T02:26:41.076Z,5.40
2022-11-22T02:27:41.071Z,6.00
2022-11-22T02:28:41.057Z,6.70
2022-11-22T02:29:41.075Z,5.30
2022-11-22T02:30:41.050Z,6.30
2022-11-22T02:31:41.068Z,6.30
2022-11-22T02:32:41.061Z,6.40
2022-11-22T02:33:41.034Z,6.80
2022-11-22T02:34:41.029Z,5.40
2022-11-22T02:35:41.023Z,6.60
2022-11-22T02:36:41.025Z,7.30
2022-11-22T02:37:41.012Z,5.10
2022-11-22T02:38:41.009Z,4.80
2022-11-22T02:39:41.003Z,4.70
2022-11-22T02:40:41.001Z,6.50
2022-11-22T02:41:41.002Z,5.80
2022-11-22T02:42:40.996Z,5.50
2022-11-22T02:43:40.986Z,4.70
2022-11-22T02:44:40.982Z,4.90
2022-11-22T02:45:40.975Z,5.60
2022-11-22T02:46:40.973Z,7.90
2022-11-22T02:47:40.965Z,6.00
2022-11-22T02:48:40.985Z,5.40
2022-11-22T02:49:40.958Z,5.60
2022-11-22T02:50:40.955Z,6.70
2022-11-22T02:51:40.949Z,4.60
2022-11-22T02:52:41.199Z,4.60
2022-11-22T02:53:40.938Z,5.20
2022-11-22T02:54:40.933Z,5.50
2022-11-22T02:55:40.927Z,6.10
2022-11-22T02:56:40.925Z,5.40
2022-11-22T02:57:40.923Z,5.50
2022-11-22T02:58:40.918Z,5.80
2022-11-22T02:59:40.910Z,6.30
2022-11-22T03:00:41.012Z,6.80
2022-11-22T03:01:40.903Z,4.60
2022-11-22T03:02:40.897Z,4.60
2022-11-22T03:03:40.891Z,5.90
2022-11-22T03:04:40.909Z,5.50
2022-11-22T03:05:40.882Z,5.20
2022-11-22T03:06:40.877Z,5.00
2022-11-22T03:07:40.945Z,4.90
2022-11-22T03:08:40.869Z,5.50
2022-11-22T03:09:40.864Z,6.00
2022-11-22T03:10:40.858Z,5.40
2022-11-22T03:11:40.853Z,6.60
2022-11-22T03:12:40.850Z,4.80
2022-11-22T03:13:40.842Z,6.00
2022-11-22T03:14:40.850Z,4.30
2022-11-22T03:15:40.841Z,5.10
2022-11-22T03:16:40.830Z,4.00
2022-11-22T03:17:40.822Z,4.70
2022-11-22T03:18:40.819Z,6.50
2022-11-22T03:19:40.820Z,4.30
2022-11-22T03:20:40.841Z,4.50
2022-11-22T03:21:40.803Z,5.40
2022-11-22T03:22:40.825Z,4.10
2022-11-22T03:23:40.798Z,4.40
2022-11-22T03:24:40.794Z,5.40
2022-11-22T03:25:40.792Z,6.00
2022-11-22T03:26:40.782Z,7.40
2022-11-22T03:27:40.778Z,5.30
2022-11-22T03:28:40.773Z,5.60
2022-11-22T03:29:40.765Z,5.80
2022-11-22T03:30:40.765Z,4.90
2022-11-22T03:31:40.762Z,4.60
2022-11-22T03:32:40.757Z,5.30
2022-11-22T03:33:40.757Z,5.20
2022-11-22T03:34:40.752Z,4.20
2022-11-22T03:35:40.741Z,4.70
2022-11-22T03:36:40.753Z,5.10
2022-11-22T03:37:40.728Z,4.50
2022-11-22T03:38:40.724Z,5.90
2022-11-22T03:39:40.721Z,4.70
2022-11-22T03:40:40.719Z,5.20
2022-11-22T03:41:40.708Z,4.50
2022-11-22T03:42:40.704Z,4.30
2022-11-22T03:43:40.698Z,4.90
2022-11-22T03:44:40.698Z,4.30
2022-11-22T03:45:40.689Z,5.20
2022-11-22T03:46:40.687Z,5.40
2022-11-22T03:47:40.681Z,4.80
2022-11-22T03:48:40.677Z,5.30
2022-11-22T03:49:40.670Z,6.60
2022-11-22T03:50:40.672Z,4.90
2022-11-22T03:51:40.663Z,4.70
2022-11-22T03:52:40.679Z,5.90
2022-11-22T03:53:40.649Z,5.30
2022-11-22T03:54:40.648Z,5.00
2022-11-22T03:55:40.654Z,6.10
2022-11-22T03:56:40.642Z,3.60
2022-11-22T03:57:40.883Z,4.50
2022-11-22T03:58:40.634Z,6.60
2022-11-22T03:59:40.631Z,4.90
2022-11-22T04:00:40.623Z,4.30
2022-11-22T04:01:40.770Z,4.10
2022-11-22T04:02:40.612Z,5.40
2022-11-22T04:03:40.604Z,5.00
2022-11-22T04:04:40.602Z,5.70
2022-11-22T04:05:40.605Z,5.00
2022-11-22T04:06:40.602Z,3.90
2022-11-22T04:07:40.616Z,5.00
2022-11-22T04:08:40.716Z,4.80
2022-11-22T04:09:40.575Z,5.70
2022-11-22T04:10:40.579Z,4.40
2022-11-22T04:11:40.573Z,4.40
2022-11-22T04:12:40.569Z,4.10
2022-11-22T04:13:40.594Z,5.10
2022-11-22T04:14:40.558Z,5.00
2022-11-22T04:15:40.550Z,5.30
2022-11-22T04:16:40.546Z,7.40
2022-11-22T04:17:40.535Z,4.60
2022-11-22T04:18:40.535Z,3.80
2022-11-22T04:19:40.526Z,5.20
2022-11-22T04:20:40.525Z,4.90
2022-11-22T04:21:40.516Z,4.20
2022-11-22T04:22:40.515Z,3.20
2022-11-22T04:23:40.507Z,3.80
2022-11-22T04:24:40.528Z,5.60
2022-11-22T04:25:40.500Z,5.40
2022-11-22T04:26:40.498Z,4.80
2022-11-22T04:27:40.492Z,4.10
2022-11-22T04:29:08.135Z,3.60
2022-11-22T04:29:40.477Z,5.10
2022-11-22T04:30:40.484Z,4.20
2022-11-22T04:31:40.475Z,5.20
2022-11-22T04:32:40.472Z,4.90
2022-11-22T04:33:40.461Z,4.30
2022-11-22T04:34:40.455Z,3.90
2022-11-22T04:35:40.448Z,4.70
2022-11-22T04:36:40.446Z,4.60
2022-11-22T04:37:40.438Z,4.00
2022-11-22T04:38:40.436Z,5.70
2022-11-22T04:39:40.447Z,5.70
2022-11-22T04:40:40.450Z,5.20
2022-11-22T04:41:40.419Z,4.40
2022-11-22T04:42:40.414Z,4.70
2022-11-22T04:43:40.412Z,4.60
2022-11-22T04:44:40.408Z,5.10
2022-11-22T04:45:40.406Z,5.50
2022-11-22T04:46:40.394Z,5.50
2022-11-22T04:47:40.389Z,3.80
2022-11-22T04:48:40.389Z,5.80
2022-11-22T04:49:40.382Z,5.20
2022-11-22T04:50:40.376Z,3.20
2022-11-22T04:51:40.372Z,4.20
2022-11-22T04:52:40.365Z,6.20
2022-11-22T04:53:40.364Z,5.00
2022-11-22T04:54:40.357Z,5.10
2022-11-22T04:55:40.356Z,4.90
2022-11-22T04:56:40.367Z,4.50
2022-11-22T04:57:40.362Z,4.80
2022-11-22T04:58:40.344Z,3.50
2022-11-22T04:59:40.336Z,4.80
2022-11-22T05:00:40.359Z,3.50
2022-11-22T05:01:40.392Z,3.30
2022-11-22T05:02:40.326Z,2.80
2022-11-22T05:03:40.323Z,4.40
2022-11-22T05:04:40.314Z,3.70
2022-11-22T05:05:40.307Z,5.20
2022-11-22T05:06:40.295Z,4.10
2022-11-22T05:07:40.352Z,3.90
2022-11-22T05:08:40.288Z,5.10
2022-11-22T05:09:40.284Z,3.70
2022-11-22T05:10:40.278Z,5.00
2022-11-22T05:11:40.275Z,3.50
2022-11-22T05:12:40.282Z,3.50
2022-11-22T05:13:40.265Z,4.10
2022-11-22T05:14:40.274Z,2.80
2022-11-22T05:15:40.251Z,4.10
2022-11-22T05:16:40.247Z,3.80
2022-11-22T05:17:40.242Z,4.30
2022-11-22T05:18:40.236Z,3.80
2022-11-22T05:19:43.597Z,3.20
2022-11-22T05:20:40.226Z,4.50
2022-11-22T05:21:40.223Z,4.80
2022-11-22T05:22:40.213Z,4.20
2022-11-22T05:23:40.210Z,3.20
2022-11-22T05:24:40.205Z,3.60
2022-11-22T05:25:40.198Z,5.60
2022-11-22T05:26:40.193Z,4.00
2022-11-22T05:27:40.189Z,4.30
2022-11-22T05:28:40.204Z,3.60
2022-11-22T05:29:40.180Z,3.50
2022-11-22T05:30:40.173Z,3.10
2022-11-22T05:31:40.180Z,4.20
2022-11-22T05:32:40.164Z,3.30
2022-11-22T05:33:40.158Z,3.50
2022-11-22T05:34:40.157Z,3.90
2022-11-22T05:35:40.150Z,5.60
2022-11-22T05:36:40.143Z,4.90
2022-11-22T05:37:40.142Z,5.30
2022-11-22T05:38:40.137Z,6.90
2022-11-22T05:39:40.127Z,4.70
2022-11-22T05:40:40.123Z,5.70
2022-11-22T05:41:40.118Z,6.50
2022-11-22T05:42:40.111Z,4.60
2022-11-22T05:43:40.113Z,5.80
2022-11-22T05:44:40.118Z,5.50
2022-11-22T05:45:40.097Z,4.80
2022-11-22T05:46:40.089Z,7.30
2022-11-22T05:47:40.088Z,4.00
2022-11-22T05:48:40.080Z,7.80
2022-11-22T05:49:40.079Z,5.50
2022-11-22T05:50:40.069Z,6.60
2022-11-22T05:51:40.069Z,6.80
2022-11-22T05:52:40.099Z,7.80
2022-11-22T05:53:40.055Z,6.50
2022-11-22T05:54:40.049Z,6.50
2022-11-22T05:55:40.046Z,6.30
2022-11-22T05:56:40.037Z,5.80
2022-11-22T05:57:40.055Z,6.60
2022-11-22T05:58:40.039Z,5.00
2022-11-22T05:59:44.063Z,6.50
2022-11-22T06:00:40.051Z,6.80
2022-11-22T06:01:40.094Z,7.50
2022-11-22T06:02:40.546Z,7.70
2022-11-22T06:03:40.004Z,8.10
2022-11-22T06:04:40.002Z,7.40
2022-11-22T06:05:39.994Z,9.60
2022-11-22T06:06:39.990Z,7.20
2022-11-22T06:07:40.023Z,6.80
2022-11-22T06:08:39.976Z,9.50
2022-11-22T06:09:39.972Z,7.50
2022-11-22T06:10:39.965Z,9.30
2022-11-22T06:11:39.964Z,8.00
2022-11-22T06:12:39.992Z,6.90
2022-11-22T06:13:39.955Z,7.50
2022-11-22T06:14:43.189Z,7.90
2022-11-22T06:15:39.941Z,8.30
2022-11-22T06:16:39.960Z,7.70
2022-11-22T06:17:39.946Z,6.90
2022-11-22T06:18:39.933Z,6.40
2022-11-22T06:19:39.929Z,6.70
2022-11-22T06:20:39.918Z,9.20
2022-11-22T06:21:39.910Z,7.90
2022-11-22T06:22:39.904Z,8.50
2022-11-22T06:23:39.905Z,7.40
2022-11-22T06:24:39.896Z,7.90
2022-11-22T06:25:39.903Z,6.40
2022-11-22T06:26:39.887Z,7.50
2022-11-22T06:27:39.879Z,8.40
2022-11-22T06:28:39.876Z,6.90
2022-11-22T06:29:39.869Z,7.40
2022-11-22T06:30:39.864Z,6.80
2022-11-22T06:31:39.859Z,9.20
2022-11-22T06:32:39.889Z,10.40
2022-11-22T06:33:39.852Z,8.20
2022-11-22T06:34:39.847Z,8.90
2022-11-22T06:35:39.856Z,8.00
2022-11-22T06:36:39.833Z,8.60
2022-11-22T06:37:39.867Z,6.90
2022-11-22T06:38:39.834Z,7.90
2022-11-22T06:39:39.818Z,6.80
2022-11-22T06:40:39.814Z,7.80
2022-11-22T06:41:39.807Z,8.70
2022-11-22T06:42:39.800Z,7.50
2022-11-22T06:43:43.790Z,6.90
2022-11-22T06:44:39.795Z,9.20
2022-11-22T06:45:39.786Z,8.20
2022-11-22T06:46:39.783Z,10.20
2022-11-22T06:47:39.790Z,9.80
2022-11-22T06:48:39.802Z,7.70
2022-11-22T06:49:39.764Z,9.30
2022-11-22T06:50:39.758Z,7.40
2022-11-22T06:51:39.858Z,6.90
2022-11-22T06:52:39.749Z,9.30
2022-11-22T06:53:47.184Z,11.00
2022-11-22T06:54:39.740Z,9.20
2022-11-22T06:56:01.050Z,10.10
2022-11-22T06:56:39.744Z,8.90
2022-11-22T06:57:39.724Z,8.90
2022-11-22T06:58:39.717Z,7.90
2022-11-22T06:59:39.715Z,9.90
2022-11-22T07:00:39.728Z,10.20
2022-11-22T07:01:39.785Z,10.90
2022-11-22T07:02:39.704Z,11.80
2022-11-22T07:03:39.746Z,8.40
2022-11-22T07:04:51.106Z,8.20
2022-11-22T07:05:39.688Z,8.50
2022-11-22T07:06:39.684Z,10.40
2022-11-22T07:07:39.735Z,9.40
2022-11-22T07:08:39.679Z,10.10
2022-11-22T07:09:39.675Z,9.30
2022-11-22T07:10:39.656Z,8.10
2022-11-22T07:11:39.653Z,8.70
2022-11-22T07:12:39.646Z,10.80
2022-11-22T07:13:39.640Z,7.30
2022-11-22T07:14:39.638Z,9.00
2022-11-22T07:15:39.635Z,9.00
2022-11-22T07:16:39.631Z,8.90
2022-11-22T07:17:39.620Z,9.30
2022-11-22T07:18:39.617Z,7.80
2022-11-22T07:19:39.610Z,9.20
2022-11-22T07:20:39.622Z,9.70
2022-11-22T07:21:39.600Z,8.30
2022-11-22T07:22:39.599Z,8.90
2022-11-22T07:23:39.594Z,11.00
2022-11-22T07:24:39.582Z,9.40
2022-11-22T07:25:39.580Z,9.90
2022-11-22T07:26:39.570Z,10.80
2022-11-22T07:27:39.570Z,11.40
2022-11-22T07:28:39.561Z,11.30
2022-11-22T07:29:39.558Z,10.20
2022-11-22T07:30:43.826Z,10.80
2022-11-22T07:31:39.550Z,8.40
2022-11-22T07:32:39.542Z,10.60
2022-11-22T07:33:39.538Z,9.10
2022-11-22T07:34:39.531Z,10.80
2022-11-22T07:35:39.528Z,6.30
2022-11-22T07:36:39.539Z,12.60
2022-11-22T07:37:39.518Z,10.50
2022-11-22T07:38:39.517Z,8.60
2022-11-22T07:39:39.508Z,9.00
2022-11-22T07:40:39.503Z,8.60
2022-11-22T07:41:39.498Z,8.90
2022-11-22T07:42:39.490Z,7.70
2022-11-22T07:43:39.491Z,9.70
2022-11-22T07:44:39.524Z,11.20
2022-11-22T07:45:39.480Z,8.80
2022-11-22T07:46:39.473Z,8.50
2022-11-22T07:47:39.476Z,8.10
2022-11-22T07:48:39.460Z,8.70
2022-11-22T07:49:39.472Z,10.30
2022-11-22T07:50:39.448Z,8.80
2022-11-22T07:51:39.447Z,11.20
2022-11-22T07:52:39.464Z,11.10
2022-11-22T07:53:39.434Z,9.50
2022-11-22T07:54:39.428Z,8.60
2022-11-22T07:55:39.423Z,9.50
2022-11-22T07:56:39.417Z,10.60
2022-11-22T07:57:39.414Z,10.80
2022-11-22T07:58:39.450Z,8.50
2022-11-22T07:59:39.403Z,9.40
2022-11-22T08:00:39.400Z,10.30
2022-11-22T08:01:39.424Z,10.70
2022-11-22T08:02:39.387Z,12.10
2022-11-22T08:03:39.385Z,11.20
2022-11-22T08:04:39.377Z,10.20
2022-11-22T08:05:39.372Z,10.10
2022-11-22T08:06:39.366Z,9.50
2022-11-22T08:07:39.436Z,11.20
2022-11-22T08:08:39.472Z,10.10
2022-11-22T08:09:39.352Z,9.60
2022-11-22T08:10:39.346Z,9.50
2022-11-22T08:11:39.341Z,9.30
2022-11-22T08:12:39.346Z,10.30
2022-11-22T08:13:39.335Z,10.40
2022-11-22T08:14:39.325Z,10.60
2022-11-22T08:15:39.325Z,9.90
2022-11-22T08:16:39.314Z,12.70
2022-11-22T08:17:39.320Z,9.10
2022-11-22T08:18:39.307Z,8.90
2022-11-22T08:19:39.299Z,9.90
2022-11-22T08:20:39.299Z,8.40
2022-11-22T08:21:39.290Z,7.80
2022-11-22T08:22:39.282Z,8.40
2022-11-22T08:23:39.290Z,9.30
2022-11-22T08:24:39.390Z,9.20
2022-11-22T08:25:39.276Z,9.60
2022-11-22T08:26:39.264Z,10.60
2022-11-22T08:27:39.258Z,8.00
2022-11-22T08:28:39.253Z,8.80
2022-11-22T08:29:39.248Z,9.40
2022-11-22T08:30:39.243Z,10.90
2022-11-22T08:31:39.238Z,12.30
2022-11-22T08:32:39.235Z,10.80
2022-11-22T08:33:39.228Z,9.30
2022-11-22T08:34:44.190Z,8.40
2022-11-22T08:35:39.221Z,9.20
2022-11-22T08:36:39.214Z,9.20
2022-11-22T08:37:39.207Z,7.70
2022-11-22T08:38:39.200Z,9.40
2022-11-22T08:39:39.201Z,9.00
2022-11-22T08:40:41.157Z,10.00
2022-11-22T08:41:39.187Z,10.10
2022-11-22T08:42:39.182Z,8.20
2022-11-22T08:43:39.180Z,8.30
2022-11-22T08:44:39.169Z,7.40
2022-11-22T08:45:39.175Z,8.80
2022-11-22T08:46:39.164Z,9.50
2022-11-22T08:47:39.155Z,10.10
2022-11-22T08:48:39.151Z,8.30
2022-11-22T08:49:39.144Z,11.10
2022-11-22T08:50:39.143Z,9.10
2022-11-22T08:51:39.134Z,10.30
2022-11-22T08:52:39.127Z,9.30
2022-11-22T08:53:39.127Z,10.30
2022-11-22T08:54:39.123Z,6.20
2022-11-22T08:55:39.113Z,8.40
2022-11-22T08:56:39.128Z,9.10
2022-11-22T08:57:39.105Z,9.60
2022-11-22T08:58:39.100Z,8.10
2022-11-22T08:59:39.200Z,9.40
2022-11-22T09:00:39.095Z,8.80
2022-11-22T09:01:39.127Z,8.30
2022-11-22T09:02:39.079Z,9.10
2022-11-22T09:03:39.075Z,11.10
2022-11-22T09:04:39.069Z,9.40
2022-11-22T09:08:41.115Z,9.10
2022-11-22T09:09:39.045Z,8.90
2022-11-22T09:10:39.037Z,7.60
2022-11-22T09:11:39.031Z,8.20
2022-11-22T09:12:39.146Z,8.80
2022-11-22T09:13:39.020Z,7.60
2022-11-22T09:14:39.018Z,9.20
2022-11-22T09:15:39.011Z,10.40
2022-11-22T09:16:39.008Z,6.30
2022-11-22T09:17:38.999Z,9.30
2022-11-22T09:18:38.998Z,7.10
2022-11-22T09:19:38.989Z,7.30
2022-11-22T09:20:38.986Z,8.20
2022-11-22T09:21:38.980Z,7.80
2022-11-22T09:22:38.980Z,7.70
2022-11-22T09:23:38.969Z,6.90
2022-11-22T09:24:38.966Z,6.40
2022-11-22T09:25:38.957Z,7.30
2022-11-22T09:26:38.955Z,7.70
2022-11-22T09:27:38.947Z,7.50
2022-11-22T09:28:38.969Z,6.00
2022-11-22T09:29:38.955Z,8.40
2022-11-22T09:30:38.938Z,6.00
2022-11-22T09:31:38.939Z,7.30
2022-11-22T09:32:38.930Z,6.90
2022-11-22T09:33:38.920Z,6.60
2022-11-22T09:34:38.914Z,5.20
2022-11-22T09:35:38.906Z,6.50
2022-11-22T09:36:38.905Z,6.30
2022-11-22T09:37:38.895Z,6.40
2022-11-22T09:38:38.901Z,5.40
2022-11-22T09:39:42.531Z,5.80
2022-11-22T09:40:38.889Z,7.10
2022-11-22T09:41:38.875Z,7.70
2022-11-22T09:42:38.873Z,6.80
2022-11-22T09:43:38.865Z,5.60
2022-11-22T09:44:38.976Z,7.10
2022-11-22T09:45:38.856Z,7.70
2022-11-22T09:46:38.862Z,6.20
2022-11-22T09:47:38.845Z,5.80
2022-11-22T09:48:38.842Z,6.40
2022-11-22T09:49:38.834Z,8.30
2022-11-22T09:50:38.834Z,4.70
2022-11-22T09:51:38.828Z,6.30
2022-11-22T09:52:38.824Z,5.90
2022-11-22T09:53:38.819Z,6.10
2022-11-22T09:54:38.815Z,7.00
2022-11-22T09:55:38.809Z,6.10
2022-11-22T09:56:38.802Z,6.30
2022-11-22T09:57:38.795Z,7.20
2022-11-22T09:58:38.795Z,6.60
2022-11-22T09:59:38.785Z,6.80
2022-11-22T10:00:38.959Z,6.00
2022-11-22T10:01:38.842Z,6.70
2022-11-22T10:02:58.946Z,6.20
2022-11-22T10:03:38.765Z,6.20
2022-11-22T10:04:38.763Z,7.30
2022-11-22T10:05:38.763Z,6.90
2022-11-22T10:06:38.753Z,6.50
2022-11-22T10:07:38.817Z,6.10
2022-11-22T10:08:39.095Z,5.00
2022-11-22T10:09:38.733Z,6.20
2022-11-22T10:10:38.733Z,6.20
2022-11-22T10:11:38.728Z,6.80
2022-11-22T10:12:38.723Z,6.30
2022-11-22T10:13:38.728Z,6.70
2022-11-22T10:14:38.713Z,6.70
2022-11-22T10:15:38.710Z,6.70
2022-11-22T10:16:38.822Z,6.20
2022-11-22T10:17:38.698Z,5.30
2022-11-22T10:18:38.695Z,5.80
2022-11-22T10:19:38.690Z,4.00
2022-11-22T10:20:38.688Z,5.10
2022-11-22T10:21:38.677Z,6.50
2022-11-22T10:22:38.673Z,4.20
2022-11-22T10:23:38.667Z,4.70
2022-11-22T10:24:38.665Z,6.60
2022-11-22T10:25:38.657Z,5.50
2022-11-22T10:26:38.655Z,6.40
2022-11-22T10:27:38.646Z,3.80
2022-11-22T10:28:38.644Z,6.70
2022-11-22T10:29:38.638Z,4.70
2022-11-22T10:30:38.633Z,5.40
2022-11-22T10:31:38.630Z,6.50
2022-11-22T10:32:38.742Z,5.60
2022-11-22T10:33:44.039Z,4.00
2022-11-22T10:34:38.619Z,4.20
2022-11-22T10:35:38.608Z,4.50
2022-11-22T10:36:38.605Z,6.00
2022-11-22T10:37:38.599Z,4.50
2022-11-22T10:38:38.592Z,5.30
2022-11-22T10:39:38.709Z,4.70
2022-11-22T10:40:38.588Z,5.50
2022-11-22T10:41:38.583Z,4.50
2022-11-22T10:42:38.576Z,5.00
2022-11-22T10:43:38.571Z,3.20
2022-11-22T10:44:38.568Z,4.50
2022-11-22T10:45:38.569Z,4.60
2022-11-22T10:46:38.574Z,5.90
2022-11-22T10:47:38.553Z,5.70
2022-11-22T10:48:38.655Z,4.00
2022-11-22T10:49:38.537Z,4.90
2022-11-22T10:50:38.540Z,4.70
2022-11-22T10:51:38.528Z,6.40
2022-11-22T10:52:38.529Z,4.20
2022-11-22T10:53:38.519Z,3.50
2022-11-22T10:54:38.541Z,4.60
2022-11-22T10:55:38.516Z,6.20
2022-11-22T10:56:38.505Z,3.80
2022-11-22T10:57:38.499Z,4.70
2022-11-22T10:58:38.494Z,6.00
2022-11-22T10:59:38.488Z,6.50
2022-11-22T11:00:38.485Z,4.50
2022-11-22T11:01:38.520Z,4.50
2022-11-22T11:02:38.478Z,4.50
2022-11-22T11:03:38.472Z,3.80
2022-11-22T11:04:38.603Z,3.70
2022-11-22T11:05:42.052Z,5.30
2022-11-22T11:07:04.623Z,5.10
2022-11-22T11:07:38.490Z,4.90
2022-11-22T11:09:02.523Z,4.60
2022-11-22T11:10:38.554Z,5.10
2022-11-22T11:11:38.426Z,4.50
2022-11-22T11:12:38.428Z,4.80
2022-11-22T11:13:38.418Z,3.50
2022-11-22T11:14:38.414Z,5.10
2022-11-22T11:15:38.413Z,4.80
2022-11-22T11:16:38.404Z,4.90
2022-11-22T11:17:38.398Z,4.80
2022-11-22T11:18:38.397Z,3.90
2022-11-22T11:19:38.389Z,4.40
2022-11-22T11:20:38.500Z,4.40
2022-11-22T11:21:38.388Z,3.90
2022-11-22T11:23:12.673Z,3.90
2022-11-22T11:23:38.373Z,4.60
2022-11-22T11:24:38.367Z,3.20
2022-11-22T11:25:38.358Z,5.20
2022-11-22T11:26:38.357Z,5.60
2022-11-22T11:27:38.349Z,3.60
2022-11-22T11:28:38.350Z,5.50
2022-11-22T11:29:38.530Z,4.20
2022-11-22T11:30:38.336Z,5.90
2022-11-22T11:31:38.332Z,6.30
2022-11-22T11:32:38.327Z,3.10
2022-11-22T11:33:38.418Z,5.00
2022-11-22T11:34:38.316Z,4.20
2022-11-22T11:35:38.312Z,3.00
2022-11-22T11:36:38.350Z,4.90
2022-11-22T11:37:38.306Z,4.20
2022-11-22T11:38:38.299Z,3.80
2022-11-22T11:39:43.385Z,3.80
2022-11-22T11:40:38.286Z,3.50
2022-11-22T11:41:43.243Z,3.60
2022-11-22T11:42:38.277Z,3.50
2022-11-22T11:43:38.271Z,4.20
2022-11-22T11:44:38.274Z,2.80
2022-11-22T11:45:38.262Z,3.40
2022-11-22T11:46:38.258Z,3.70
2022-11-22T11:47:38.250Z,4.20
2022-11-22T11:48:38.248Z,3.10
2022-11-22T11:49:38.243Z,2.80
2022-11-22T11:50:38.241Z,3.50
2022-11-22T11:51:38.232Z,2.50
2022-11-22T11:52:38.348Z,3.20
2022-11-22T11:53:38.226Z,4.90
2022-11-22T11:54:38.219Z,2.70
2022-11-22T11:55:38.213Z,3.80
2022-11-22T11:56:38.210Z,2.70
2022-11-22T11:57:38.201Z,2.30
2022-11-22T11:58:38.200Z,1.40
2022-11-22T11:59:38.195Z,1.80
2022-11-22T12:00:38.198Z,2.90
2022-11-22T12:01:39.098Z,3.30
2022-11-22T12:02:38.275Z,2.90
2022-11-22T12:03:38.174Z,2.30
2022-11-22T12:04:38.171Z,2.10
2022-11-22T12:05:38.172Z,2.20
2022-11-22T12:06:38.161Z,2.40
2022-11-22T12:07:38.229Z,2.30
2022-11-22T12:08:38.263Z,3.20
2022-11-22T12:09:38.144Z,3.70
2022-11-22T12:10:38.141Z,2.70
2022-11-22T12:11:38.135Z,3.60
2022-11-22T12:12:38.132Z,1.70
2022-11-22T12:13:57.616Z,2.20
2022-11-22T12:15:09.099Z,2.00
2022-11-22T12:15:38.115Z,2.10
2022-11-22T12:16:38.112Z,2.70
2022-11-22T12:17:38.105Z,2.00
2022-11-22T12:18:38.103Z,3.10
2022-11-22T12:19:38.096Z,1.70
2022-11-22T12:20:38.105Z,1.90
2022-11-22T12:21:38.095Z,1.80
2022-11-22T12:22:53.436Z,2.60
2022-11-22T12:23:38.084Z,2.50
2022-11-22T12:25:24.422Z,1.80
2022-11-22T12:25:38.344Z,2.70
2022-11-22T12:26:38.062Z,2.60
2022-11-22T12:27:38.057Z,2.40
2022-11-22T12:28:38.056Z,2.00
2022-11-22T12:29:38.046Z,2.60
2022-11-22T12:30:38.047Z,2.30
2022-11-22T12:31:38.038Z,2.10
2022-11-22T12:32:38.037Z,2.20
2022-11-22T12:33:38.030Z,2.70
2022-11-22T12:34:38.026Z,1.90
2022-11-22T12:35:38.018Z,2.20
2022-11-22T12:36:38.020Z,1.60
2022-11-22T12:37:38.007Z,2.20
2022-11-22T12:38:38.010Z,1.40
2022-11-22T12:39:38.011Z,1.10
2022-11-22T12:40:38.109Z,2.10
2022-11-22T12:41:37.990Z,2.30
2022-11-22T12:42:37.987Z,2.30
2022-11-22T12:43:37.980Z,2.30
2022-11-22T12:44:37.988Z,2.00
2022-11-22T12:45:37.969Z,2.10
2022-11-22T12:46:39.600Z,2.00
2022-11-22T12:47:37.984Z,1.90
2022-11-22T12:48:37.961Z,2.40
2022-11-22T12:49:37.951Z,1.50
2022-11-22T12:50:37.951Z,1.70
2022-11-22T12:51:37.946Z,1.80
2022-11-22T12:52:37.945Z,2.60
2022-11-22T12:53:37.933Z,1.60
2022-11-22T12:54:37.930Z,1.50
2022-11-22T12:55:37.926Z,3.10
2022-11-22T12:56:38.055Z,2.20
2022-11-22T12:57:37.913Z,2.40
2022-11-22T12:58:37.910Z,2.50
2022-11-22T12:59:37.905Z,2.30
2022-11-22T13:00:37.907Z,2.50
2022-11-22T13:01:37.964Z,2.00
2022-11-22T13:02:37.894Z,2.40
2022-11-22T13:03:37.886Z,1.30
2022-11-22T13:04:37.882Z,2.30
2022-11-22T13:05:37.876Z,1.90
2022-11-22T13:06:37.902Z,3.00
2022-11-22T13:07:37.898Z,1.80
2022-11-22T13:08:37.864Z,1.70
2022-11-22T13:09:37.856Z,1.40
2022-11-22T13:10:37.857Z,1.70
2022-11-22T13:11:37.847Z,1.80
2022-11-22T13:12:37.962Z,3.10
2022-11-22T13:13:37.837Z,2.80
2022-11-22T13:14:38.034Z,2.80
2022-11-22T13:15:37.828Z,3.30
2022-11-22T13:16:37.823Z,3.00
2022-11-22T13:17:37.819Z,3.10
2022-11-22T13:18:37.814Z,2.00
2022-11-22T13:19:37.811Z,3.20
2022-11-22T13:20:42.786Z,1.80